createdAt,value
2023-07-19T00:01:03.217Z,18.08
2023-07-19T00:03:29.530Z,18.10
2023-07-19T00:05:55.810Z,18.03
2023-07-19T00:08:22.067Z,17.66
2023-07-19T00:10:48.306Z,17.32
2023-07-19T00:13:14.575Z,17.17
2023-07-19T00:15:40.868Z,17.22
2023-07-19T00:18:07.144Z,17.37
2023-07-19T00:20:33.421Z,17.56
2023-07-19T00:22:59.709Z,17.68
2023-07-19T00:25:26.035Z,17.76
2023-07-19T00:27:52.322Z,17.82
2023-07-19T00:30:18.611Z,17.85
2023-07-19T00:32:44.907Z,17.89
2023-07-19T00:35:11.260Z,17.89
2023-07-19T00:37:37.539Z,17.81
2023-07-19T00:40:04.061Z,17.85
2023-07-19T00:42:30.395Z,17.89
2023-07-19T00:44:56.785Z,17.82
2023-07-19T00:47:23.984Z,17.81
2023-07-19T00:49:51.255Z,17.81
2023-07-19T00:52:17.521Z,17.84
2023-07-19T00:54:43.772Z,17.85
2023-07-19T00:57:10.045Z,17.88
2023-07-19T00:59:36.301Z,17.92
2023-07-19T01:02:02.572Z,17.90
2023-07-19T01:04:28.852Z,17.66
2023-07-19T01:06:55.112Z,17.69
2023-07-19T01:09:21.384Z,17.75
2023-07-19T01:11:47.650Z,17.75
2023-07-19T01:14:14.933Z,17.59
2023-07-19T01:16:41.271Z,17.59
2023-07-19T01:19:08.152Z,17.58
2023-07-19T01:21:34.659Z,17.62
2023-07-19T01:24:01.115Z,17.66
2023-07-19T01:26:27.360Z,17.66
2023-07-19T01:28:56.365Z,17.69
2023-07-19T01:31:22.818Z,17.70
2023-07-19T01:33:49.380Z,17.71
2023-07-19T01:36:15.668Z,17.71
2023-07-19T01:38:41.940Z,17.64
2023-07-19T01:41:08.251Z,17.52
2023-07-19T01:43:35.257Z,17.52
2023-07-19T01:46:01.561Z,17.63
2023-07-19T01:48:28.273Z,17.62
2023-07-19T01:50:54.517Z,17.64
2023-07-19T01:53:20.772Z,17.67
2023-07-19T01:55:47.165Z,17.43
2023-07-19T01:58:13.444Z,17.38
2023-07-19T02:00:39.699Z,17.50
2023-07-19T02:03:06.025Z,17.59
2023-07-19T02:05:32.295Z,17.65
2023-07-19T02:07:58.560Z,17.69
2023-07-19T02:10:24.826Z,17.66
2023-07-19T02:12:51.095Z,17.64
2023-07-19T02:15:17.460Z,17.61
2023-07-19T02:17:43.767Z,17.62
2023-07-19T02:20:10.202Z,17.62
2023-07-19T02:22:36.506Z,17.61
2023-07-19T02:25:02.899Z,17.59
2023-07-19T02:27:29.180Z,17.57
2023-07-19T02:29:55.447Z,17.41
2023-07-19T02:32:21.729Z,17.08
2023-07-19T02:34:47.994Z,17.13
2023-07-19T02:37:14.247Z,17.23
2023-07-19T02:39:40.512Z,17.30
2023-07-19T02:42:06.862Z,17.35
2023-07-19T02:44:33.117Z,17.40
2023-07-19T02:46:59.442Z,17.42
2023-07-19T02:49:25.772Z,17.41
2023-07-19T02:51:52.023Z,17.44
2023-07-19T02:54:18.269Z,17.46
2023-07-19T02:56:44.524Z,17.46
2023-07-19T02:59:10.792Z,17.46
2023-07-19T03:01:37.043Z,17.48
2023-07-19T03:04:03.313Z,17.44
2023-07-19T03:06:29.578Z,16.94
2023-07-19T03:08:56.007Z,16.67
2023-07-19T03:11:22.532Z,16.38
2023-07-19T03:13:49.020Z,16.40
2023-07-19T03:16:15.299Z,16.61
2023-07-19T03:18:41.578Z,16.81
2023-07-19T03:21:07.971Z,16.97
2023-07-19T03:23:34.240Z,17.07
2023-07-19T03:26:00.518Z,17.17
2023-07-19T03:28:30.169Z,17.18
2023-07-19T03:30:56.797Z,17.23
2023-07-19T03:33:23.349Z,17.26
2023-07-19T03:35:49.597Z,17.32
2023-07-19T03:38:16.354Z,17.21
2023-07-19T03:40:42.884Z,17.29
2023-07-19T03:43:09.163Z,17.35
2023-07-19T03:45:35.450Z,17.37
2023-07-19T03:48:01.799Z,17.39
2023-07-19T03:50:28.077Z,17.40
2023-07-19T03:52:54.350Z,17.42
2023-07-19T03:55:20.607Z,17.32
2023-07-19T03:57:46.908Z,17.36
2023-07-19T04:00:13.218Z,17.40
2023-07-19T04:02:39.522Z,17.40
2023-07-19T04:05:06.075Z,17.38
2023-07-19T04:07:32.350Z,17.36
2023-07-19T04:09:58.622Z,17.36
2023-07-19T04:12:24.889Z,17.36
2023-07-19T04:14:51.153Z,17.36
2023-07-19T04:17:17.413Z,17.39
2023-07-19T04:19:43.678Z,17.36
2023-07-19T04:22:09.950Z,17.36
2023-07-19T04:24:36.270Z,17.36
2023-07-19T04:27:02.533Z,17.36
2023-07-19T04:29:28.805Z,17.36
2023-07-19T04:31:55.053Z,17.31
2023-07-19T04:34:21.325Z,17.34
2023-07-19T04:36:47.580Z,17.30
2023-07-19T04:39:13.825Z,17.04
2023-07-19T04:41:40.087Z,17.06
2023-07-19T04:44:06.373Z,17.11
2023-07-19T04:46:32.650Z,17.17
2023-07-19T04:48:58.923Z,17.23
2023-07-19T04:51:25.223Z,17.28
2023-07-19T04:53:51.476Z,17.20
2023-07-19T04:56:17.734Z,17.13
2023-07-19T04:58:43.995Z,17.18
2023-07-19T05:01:10.280Z,17.19
2023-07-19T05:03:36.610Z,17.17
2023-07-19T05:06:02.921Z,17.01
2023-07-19T05:08:29.199Z,17.04
2023-07-19T05:10:55.483Z,17.04
2023-07-19T05:13:21.740Z,16.68
2023-07-19T05:15:48.021Z,16.52
2023-07-19T05:18:14.297Z,16.45
2023-07-19T05:20:40.657Z,16.43
2023-07-19T05:23:07.012Z,16.35
2023-07-19T05:25:33.379Z,16.26
2023-07-19T05:27:59.649Z,16.23
2023-07-19T05:30:25.915Z,16.10
2023-07-19T05:32:52.329Z,16.12
2023-07-19T05:35:18.589Z,16.04
2023-07-19T05:37:45.083Z,16.06
2023-07-19T05:40:11.543Z,16.13
2023-07-19T05:42:37.802Z,16.00
2023-07-19T05:45:04.299Z,15.92
2023-07-19T05:47:31.339Z,15.78
2023-07-19T05:49:57.687Z,15.67
2023-07-19T05:52:23.961Z,15.66
2023-07-19T05:54:50.254Z,15.57
2023-07-19T05:57:16.560Z,15.55
2023-07-19T05:59:42.836Z,15.64
2023-07-19T06:02:09.171Z,15.81
2023-07-19T06:04:35.617Z,15.93
2023-07-19T06:07:01.946Z,16.01
2023-07-19T06:09:28.211Z,15.98
2023-07-19T06:11:54.452Z,15.99
2023-07-19T06:14:20.713Z,15.98
2023-07-19T06:16:46.982Z,15.89
2023-07-19T06:19:13.250Z,15.87
2023-07-19T06:21:39.509Z,15.85
2023-07-19T06:24:05.896Z,16.03
2023-07-19T06:26:32.194Z,16.29
2023-07-19T06:28:58.478Z,16.42
2023-07-19T06:31:24.982Z,16.40
2023-07-19T06:33:51.398Z,16.24
2023-07-19T06:36:17.666Z,16.10
2023-07-19T06:38:43.914Z,16.12
2023-07-19T06:41:10.180Z,16.02
2023-07-19T06:43:36.446Z,16.11
2023-07-19T06:46:02.775Z,16.23
2023-07-19T06:48:29.042Z,16.30
2023-07-19T06:50:55.492Z,16.07
2023-07-19T06:53:21.752Z,15.99
2023-07-19T06:55:48.028Z,16.01
2023-07-19T06:58:14.294Z,16.07
2023-07-19T07:00:41.764Z,16.24
2023-07-19T07:03:08.256Z,16.39
2023-07-19T07:05:34.682Z,16.43
2023-07-19T07:08:00.960Z,16.51
2023-07-19T07:10:27.216Z,16.51
2023-07-19T07:12:53.471Z,16.54
2023-07-19T07:15:19.719Z,16.34
2023-07-19T07:17:46.344Z,16.27
2023-07-19T07:20:12.693Z,16.06
2023-07-19T07:22:39.039Z,16.10
2023-07-19T07:25:05.636Z,16.14
2023-07-19T07:27:31.883Z,16.22
2023-07-19T07:29:58.898Z,15.87
2023-07-19T07:32:25.271Z,15.63
2023-07-19T07:34:51.563Z,15.42
2023-07-19T07:37:17.822Z,15.56
2023-07-19T07:39:44.096Z,15.72
2023-07-19T07:42:10.360Z,15.62
2023-07-19T07:44:36.653Z,15.71
2023-07-19T07:47:02.914Z,15.80
2023-07-19T07:49:29.388Z,15.63
2023-07-19T07:51:55.632Z,15.75
2023-07-19T07:54:21.891Z,15.92
2023-07-19T07:56:48.147Z,16.11
2023-07-19T07:59:14.402Z,16.20
2023-07-19T08:01:40.645Z,16.17
2023-07-19T08:04:06.943Z,16.10
2023-07-19T08:06:33.351Z,15.98
2023-07-19T08:08:59.608Z,16.00
2023-07-19T08:11:25.863Z,16.09
2023-07-19T08:13:52.232Z,16.25
2023-07-19T08:16:18.516Z,16.34
2023-07-19T08:18:44.810Z,16.39
2023-07-19T08:21:16.150Z,16.47
2023-07-19T08:23:52.231Z,16.54
2023-07-19T08:26:18.480Z,16.61
2023-07-19T08:28:44.752Z,16.50
2023-07-19T08:31:11.046Z,16.44
2023-07-19T08:33:37.337Z,16.46
2023-07-19T08:36:03.729Z,16.25
2023-07-19T08:38:30.012Z,15.98
2023-07-19T08:41:00.147Z,15.93
2023-07-19T08:43:26.613Z,16.07
2023-07-19T08:45:52.876Z,16.22
2023-07-19T08:48:20.641Z,16.06
2023-07-19T08:50:47.262Z,16.21
2023-07-19T08:53:13.535Z,16.32
2023-07-19T08:55:39.790Z,16.41
2023-07-19T08:58:06.062Z,16.50
2023-07-19T09:00:32.345Z,16.54
2023-07-19T09:02:58.657Z,16.55
2023-07-19T09:05:25.645Z,16.37
2023-07-19T09:07:51.921Z,16.36
2023-07-19T09:10:18.318Z,16.39
2023-07-19T09:12:44.758Z,16.35
2023-07-19T09:15:11.549Z,16.40
2023-07-19T09:17:41.385Z,16.46
2023-07-19T09:20:08.086Z,16.48
2023-07-19T09:22:34.863Z,16.33
2023-07-19T09:25:01.673Z,16.26
2023-07-19T09:27:28.049Z,16.36
2023-07-19T09:29:54.344Z,16.41
2023-07-19T09:32:20.750Z,16.21
2023-07-19T09:34:47.047Z,15.92
2023-07-19T09:37:13.312Z,15.94
2023-07-19T09:39:39.566Z,16.13
2023-07-19T09:42:05.922Z,16.17
2023-07-19T09:44:32.299Z,15.93
2023-07-19T09:46:58.564Z,16.07
2023-07-19T09:49:24.909Z,15.82
2023-07-19T09:51:51.146Z,15.35
2023-07-19T09:54:17.428Z,14.89
2023-07-19T09:56:44.346Z,15.08
2023-07-19T09:59:21.127Z,15.34
2023-07-19T10:01:47.472Z,15.69
2023-07-19T10:04:23.613Z,15.89
2023-07-19T10:06:50.081Z,16.02
2023-07-19T10:09:22.425Z,16.19
2023-07-19T10:11:50.284Z,16.21
2023-07-19T10:14:33.510Z,15.91
2023-07-19T10:17:01.104Z,16.12
2023-07-19T10:19:27.404Z,16.34
2023-07-19T10:22:03.395Z,16.54
2023-07-19T10:24:29.903Z,16.59
2023-07-19T10:26:56.204Z,16.61
2023-07-19T10:29:24.007Z,16.39
2023-07-19T10:31:50.286Z,16.38
2023-07-19T10:34:17.769Z,16.47
2023-07-19T10:36:46.830Z,16.32
2023-07-19T10:39:13.134Z,16.47
2023-07-19T10:41:39.404Z,16.35
2023-07-19T10:44:06.775Z,16.14
2023-07-19T10:46:33.251Z,16.02
2023-07-19T10:48:59.591Z,16.18
2023-07-19T10:51:26.259Z,16.05
2023-07-19T10:53:53.124Z,16.14
2023-07-19T10:56:20.269Z,16.29
2023-07-19T10:58:47.007Z,16.04
2023-07-19T11:01:13.744Z,15.93
2023-07-19T11:03:40.458Z,15.96
2023-07-19T11:06:07.720Z,15.93
2023-07-19T11:08:33.975Z,15.95
2023-07-19T11:11:00.244Z,16.13
2023-07-19T11:13:26.917Z,16.03
2023-07-19T11:15:56.460Z,15.97
2023-07-19T11:18:26.061Z,16.09
2023-07-19T11:20:52.349Z,15.88
2023-07-19T11:23:18.616Z,15.78
2023-07-19T11:25:47.792Z,15.79
2023-07-19T11:28:14.260Z,15.61
2023-07-19T11:30:40.784Z,15.46
2023-07-19T11:33:07.603Z,15.55
2023-07-19T11:35:34.237Z,15.39
2023-07-19T11:38:00.651Z,15.52
2023-07-19T11:40:26.914Z,15.49
2023-07-19T11:42:55.004Z,15.51
2023-07-19T11:45:21.980Z,15.73
2023-07-19T11:47:49.002Z,15.88
2023-07-19T11:50:15.308Z,16.16
2023-07-19T11:52:42.458Z,16.01
2023-07-19T11:55:08.743Z,16.19
2023-07-19T11:57:35.008Z,15.90
2023-07-19T12:00:01.271Z,15.93
2023-07-19T12:02:29.025Z,15.89
2023-07-19T12:04:55.558Z,15.83
2023-07-19T12:07:21.836Z,16.14
2023-07-19T12:09:48.112Z,16.27
2023-07-19T12:12:14.384Z,16.60
2023-07-19T12:14:40.653Z,16.69
2023-07-19T12:17:06.917Z,16.74
2023-07-19T12:19:33.572Z,16.52
2023-07-19T12:21:59.944Z,16.43
2023-07-19T12:24:26.182Z,16.16
2023-07-19T12:26:52.456Z,16.15
2023-07-19T12:29:18.701Z,16.19
2023-07-19T12:31:45.016Z,16.30
2023-07-19T12:34:11.284Z,16.17
2023-07-19T12:36:37.542Z,16.28
2023-07-19T12:39:03.803Z,16.41
2023-07-19T12:41:30.177Z,16.41
2023-07-19T12:43:56.484Z,16.23
2023-07-19T12:46:23.026Z,16.15
2023-07-19T12:48:49.759Z,16.62
2023-07-19T12:51:16.028Z,17.00
2023-07-19T12:53:42.283Z,17.44
2023-07-19T12:56:08.561Z,17.53
2023-07-19T12:58:34.886Z,17.72
2023-07-19T13:01:01.210Z,17.91
2023-07-19T13:03:27.643Z,18.18
2023-07-19T13:05:53.943Z,18.39
2023-07-19T13:08:20.526Z,18.23
2023-07-19T13:10:46.782Z,18.07
2023-07-19T13:13:13.020Z,18.29
2023-07-19T13:15:39.272Z,18.33
2023-07-19T13:18:05.611Z,18.11
2023-07-19T13:20:31.961Z,18.08
2023-07-19T13:22:58.250Z,18.65
2023-07-19T13:25:24.556Z,19.10
2023-07-19T13:27:50.827Z,18.95
2023-07-19T13:30:17.090Z,18.46
2023-07-19T13:32:43.403Z,18.48
2023-07-19T13:40:08.399Z,18.54
2023-07-19T13:42:34.690Z,18.71
2023-07-19T13:45:01.114Z,18.71
2023-07-19T13:47:27.716Z,18.88
2023-07-19T13:49:54.068Z,18.95
2023-07-19T13:52:20.343Z,18.84
2023-07-19T13:54:47.396Z,18.78
2023-07-19T13:57:13.704Z,18.78
2023-07-19T13:59:39.949Z,18.81
2023-07-19T14:02:06.513Z,18.57
2023-07-19T14:04:32.921Z,18.36
2023-07-19T14:06:59.223Z,18.69
2023-07-19T14:09:25.485Z,19.01
2023-07-19T14:11:51.743Z,19.17
2023-07-19T14:14:18.014Z,19.05
2023-07-19T14:16:44.608Z,19.14
2023-07-19T14:19:12.133Z,19.40
2023-07-19T14:21:39.632Z,19.20
2023-07-19T14:24:06.106Z,19.28
2023-07-19T14:26:32.374Z,19.29
2023-07-19T14:28:58.621Z,18.96
2023-07-19T14:31:24.939Z,18.54
2023-07-19T14:33:51.249Z,18.30
2023-07-19T14:36:17.548Z,18.24
2023-07-19T14:38:43.805Z,18.40
2023-07-19T14:41:10.106Z,18.39
2023-07-19T14:43:36.623Z,18.46
2023-07-19T14:46:02.978Z,18.46
2023-07-19T14:48:29.278Z,18.67
2023-07-19T14:50:57.257Z,18.52
2023-07-19T14:53:25.862Z,18.50
2023-07-19T14:55:52.633Z,18.66
2023-07-19T14:58:20.826Z,18.74
2023-07-19T15:00:50.664Z,18.75
2023-07-19T15:05:47.376Z,18.63
2023-07-19T15:08:13.674Z,18.82
2023-07-19T15:10:39.951Z,18.63
2023-07-19T15:13:06.215Z,18.67
2023-07-19T15:15:32.461Z,18.94
2023-07-19T15:17:58.876Z,18.84
2023-07-19T15:20:25.224Z,18.47
2023-07-19T15:22:55.179Z,18.47
2023-07-19T15:25:21.936Z,18.54
2023-07-19T15:27:48.195Z,18.52
2023-07-19T15:30:14.429Z,18.58
2023-07-19T15:32:42.375Z,18.46
2023-07-19T15:35:09.444Z,18.49
2023-07-19T15:37:35.699Z,18.64
2023-07-19T15:40:01.958Z,18.69
2023-07-19T15:42:28.370Z,18.75
2023-07-19T15:44:54.625Z,18.75
2023-07-19T15:47:20.888Z,18.57
2023-07-19T15:49:47.139Z,18.58
2023-07-19T15:52:13.651Z,18.59
2023-07-19T15:54:39.932Z,18.53
2023-07-19T15:57:06.244Z,18.51
2023-07-19T15:59:32.498Z,18.35
2023-07-19T16:01:58.793Z,18.11
2023-07-19T16:04:25.139Z,18.16
2023-07-19T16:06:51.422Z,18.17
2023-07-19T16:09:17.682Z,18.19
2023-07-19T16:11:43.938Z,18.23
2023-07-19T16:14:10.192Z,18.28
2023-07-19T16:16:36.588Z,18.25
2023-07-19T16:19:03.006Z,18.24
2023-07-19T16:21:29.281Z,18.26
2023-07-19T16:23:55.577Z,18.15
2023-07-19T16:26:21.856Z,18.23
2023-07-19T16:28:48.135Z,18.18
2023-07-19T16:31:18.561Z,18.04
2023-07-19T16:33:44.866Z,18.01
2023-07-19T16:36:11.121Z,17.92
2023-07-19T16:38:37.394Z,17.90
2023-07-19T16:41:03.654Z,17.95
2023-07-19T16:43:29.916Z,17.94
2023-07-19T16:45:56.172Z,18.01
2023-07-19T16:48:22.429Z,17.87
2023-07-19T16:50:48.739Z,17.84
2023-07-19T16:53:15.680Z,17.68
2023-07-19T16:55:45.258Z,17.71
2023-07-19T16:58:11.579Z,17.68
2023-07-19T17:00:37.829Z,17.71
2023-07-19T17:03:04.165Z,17.73
2023-07-19T17:05:33.875Z,17.74
2023-07-19T17:08:00.144Z,17.72
2023-07-19T17:10:26.455Z,17.71
2023-07-19T17:12:52.780Z,17.78
2023-07-19T17:15:19.051Z,17.78
2023-07-19T17:17:45.446Z,17.92
2023-07-19T17:20:11.896Z,17.93
2023-07-19T17:22:38.193Z,17.98
2023-07-19T17:25:04.598Z,17.81
2023-07-19T17:27:30.860Z,17.75
2023-07-19T17:29:57.126Z,17.75
2023-07-19T17:32:23.443Z,17.93
2023-07-19T17:34:49.734Z,18.06
2023-07-19T17:37:15.989Z,18.16
2023-07-19T17:39:42.233Z,18.21
2023-07-19T17:42:08.896Z,18.29
2023-07-19T17:44:35.155Z,18.26
2023-07-19T17:47:01.474Z,17.92
2023-07-19T17:49:27.796Z,17.90
2023-07-19T17:51:54.042Z,17.84
2023-07-19T17:54:20.286Z,17.86
2023-07-19T17:56:46.531Z,18.01
2023-07-19T17:59:12.797Z,18.03
2023-07-19T18:01:39.065Z,17.83
2023-07-19T18:04:05.456Z,17.71
2023-07-19T18:06:31.759Z,17.55
2023-07-19T18:08:58.040Z,17.66
2023-07-19T18:11:24.639Z,17.69
2023-07-19T18:13:51.162Z,17.67
2023-07-19T18:16:17.439Z,17.62
2023-07-19T18:18:43.726Z,17.54
2023-07-19T18:21:10.006Z,17.51
2023-07-19T18:23:36.273Z,17.33
2023-07-19T18:26:02.511Z,17.28
2023-07-19T18:28:28.794Z,17.24
2023-07-19T18:30:55.188Z,17.16
2023-07-19T18:33:21.487Z,17.22
2023-07-19T18:35:47.742Z,17.19
2023-07-19T18:38:14.003Z,17.20
2023-07-19T18:40:40.272Z,17.12
2023-07-19T18:43:06.563Z,17.16
2023-07-19T18:45:32.867Z,17.24
2023-07-19T18:47:59.225Z,17.28
2023-07-19T18:50:25.607Z,17.30
2023-07-19T18:52:51.862Z,17.32
2023-07-19T18:55:18.133Z,17.31
2023-07-19T18:57:44.399Z,17.31
2023-07-19T19:00:10.802Z,17.31
2023-07-19T19:02:37.127Z,17.28
2023-07-19T19:05:03.565Z,17.22
2023-07-19T19:07:29.820Z,17.20
2023-07-19T19:09:56.117Z,17.20
2023-07-19T19:12:22.394Z,17.18
2023-07-19T19:14:48.644Z,17.18
2023-07-19T19:17:14.934Z,17.17
2023-07-19T19:19:41.202Z,17.06
2023-07-19T19:22:07.459Z,16.38
2023-07-19T19:24:33.706Z,16.27
2023-07-19T19:26:59.956Z,16.47
2023-07-19T19:29:26.227Z,16.63
2023-07-19T19:31:52.476Z,16.71
2023-07-19T19:34:18.741Z,16.76
2023-07-19T19:36:44.974Z,16.81
2023-07-19T19:39:27.209Z,16.84
2023-07-19T19:41:55.705Z,16.85
2023-07-19T19:44:21.995Z,16.86
2023-07-19T19:46:48.297Z,16.85
2023-07-19T19:49:14.580Z,16.86
2023-07-19T19:51:40.926Z,16.86
2023-07-19T19:54:07.191Z,16.86
2023-07-19T19:56:33.474Z,16.89
2023-07-19T19:58:59.782Z,16.85
2023-07-19T20:01:32.782Z,16.82
2023-07-19T20:04:04.208Z,16.79
2023-07-19T20:06:30.918Z,16.75
2023-07-19T20:09:02.165Z,16.74
2023-07-19T20:11:29.338Z,16.62
2023-07-19T20:13:55.629Z,16.59
2023-07-19T20:16:22.079Z,16.61
2023-07-19T20:18:48.395Z,16.61
2023-07-19T20:21:14.705Z,16.59
2023-07-19T20:23:40.961Z,16.56
2023-07-19T20:26:14.141Z,16.55
2023-07-19T20:28:41.393Z,16.55
2023-07-19T20:31:07.693Z,16.52
2023-07-19T20:33:34.393Z,16.47
2023-07-19T20:43:28.487Z,16.42
2023-07-19T20:45:54.802Z,16.37
2023-07-19T20:48:21.159Z,16.36
2023-07-19T20:50:47.441Z,16.32
2023-07-19T20:53:13.693Z,16.28
2023-07-19T20:55:39.965Z,16.26
2023-07-19T20:58:06.242Z,16.27
2023-07-19T21:00:32.489Z,16.21
2023-07-19T21:02:58.798Z,16.16
2023-07-19T21:05:25.135Z,16.15
2023-07-19T21:07:51.413Z,16.15
2023-07-19T21:10:17.672Z,16.15
2023-07-19T21:12:43.927Z,16.14
2023-07-19T21:15:10.776Z,16.11
2023-07-19T21:17:37.232Z,16.09
2023-07-19T21:20:03.589Z,16.08
2023-07-19T21:22:29.872Z,16.09
2023-07-19T21:27:25.317Z,16.10
2023-07-19T21:29:51.600Z,16.01
2023-07-19T21:32:18.228Z,15.97
2023-07-19T21:34:45.324Z,15.99
2023-07-19T21:37:11.603Z,15.99
2023-07-19T21:39:37.861Z,16.00
2023-07-19T21:42:04.159Z,15.90
2023-07-19T21:44:30.408Z,15.93
2023-07-19T21:46:56.661Z,15.94
2023-07-19T21:49:22.922Z,15.92
2023-07-19T21:51:49.173Z,15.91
2023-07-19T21:54:15.452Z,15.90
2023-07-19T21:56:41.705Z,15.90
2023-07-19T21:59:07.980Z,15.89
2023-07-19T22:01:34.279Z,15.87
2023-07-19T22:04:00.657Z,15.88
2023-07-19T22:06:26.968Z,15.87
2023-07-19T22:08:53.238Z,15.84
2023-07-19T22:11:19.552Z,15.79
2023-07-19T22:13:45.847Z,15.77
2023-07-19T22:16:12.101Z,15.77
2023-07-19T22:18:38.361Z,15.75
2023-07-19T22:21:19.688Z,15.57
2023-07-19T22:23:48.147Z,15.58
2023-07-19T22:26:14.432Z,15.60
2023-07-19T22:28:40.708Z,15.61
2023-07-19T22:31:06.995Z,15.56
2023-07-19T22:33:33.264Z,15.58
2023-07-19T22:35:59.674Z,15.55
2023-07-19T22:38:25.939Z,15.57
2023-07-19T22:40:52.224Z,15.53
2023-07-19T22:43:18.487Z,15.52
2023-07-19T22:45:44.736Z,15.51
2023-07-19T22:48:11.075Z,15.51
2023-07-19T22:50:37.376Z,15.50
2023-07-19T22:53:03.638Z,15.54
2023-07-19T22:55:29.911Z,15.59
2023-07-19T22:57:56.182Z,15.56
2023-07-19T23:00:22.632Z,15.54
2023-07-19T23:02:48.895Z,15.55
2023-07-19T23:05:15.337Z,15.51
2023-07-19T23:07:41.606Z,15.46
2023-07-19T23:10:08.079Z,15.42
2023-07-19T23:12:34.352Z,15.42
2023-07-19T23:15:00.612Z,15.43
2023-07-19T23:17:26.953Z,15.32
2023-07-19T23:19:53.268Z,15.22
2023-07-19T23:22:19.532Z,15.22
2023-07-19T23:24:45.910Z,14.97
2023-07-19T23:27:12.171Z,15.02
2023-07-19T23:29:38.468Z,15.13
2023-07-19T23:32:04.944Z,15.17
2023-07-19T23:34:31.185Z,15.14
2023-07-19T23:36:57.549Z,15.06
2023-07-19T23:39:24.097Z,14.86
2023-07-19T23:41:50.359Z,14.76
2023-07-19T23:44:16.637Z,14.58
2023-07-19T23:46:42.934Z,14.47
2023-07-19T23:49:09.454Z,14.37
2023-07-19T23:51:35.825Z,14.31
2023-07-19T23:54:02.094Z,14.30
2023-07-19T23:56:28.356Z,14.28
2023-07-19T23:58:54.616Z,14.25
